createdAt,value
2018-04-20T00:02:21.562Z,16.77
2018-04-20T00:04:49.929Z,16.70
2018-04-20T00:07:18.296Z,22.37
2018-04-20T00:09:46.748Z,17.80
2018-04-20T00:12:15.273Z,13.20
2018-04-20T00:14:43.681Z,15.60
2018-04-20T00:17:12.050Z,16.20
2018-04-20T00:19:40.408Z,18.97
2018-04-20T00:22:08.824Z,15.20
2018-04-20T00:24:37.290Z,14.73
2018-04-20T00:27:05.720Z,17.80
2018-04-20T00:29:34.117Z,18.60
2018-04-20T00:32:02.514Z,18.43
2018-04-20T00:34:30.888Z,24.33
2018-04-20T00:36:59.363Z,21.30
2018-04-20T00:39:27.717Z,14.77
2018-04-20T00:41:56.113Z,17.57
2018-04-20T00:44:24.494Z,15.97
2018-04-20T00:46:52.883Z,21.73
2018-04-20T00:49:21.260Z,19.50
2018-04-20T00:51:49.691Z,13.53
2018-04-20T00:54:24.906Z,12.87
2018-04-20T00:56:53.422Z,20.97
2018-04-20T00:59:21.806Z,20.30
2018-04-20T01:01:50.178Z,16.63
2018-04-20T01:04:18.582Z,16.20
2018-04-20T01:06:46.969Z,18.03
2018-04-20T01:09:15.325Z,20.07
2018-04-20T01:11:43.727Z,15.73
2018-04-20T01:14:12.114Z,20.40
2018-04-20T01:16:40.565Z,14.17
2018-04-20T01:19:08.933Z,14.17
2018-04-20T01:21:37.311Z,19.63
2018-04-20T01:24:05.710Z,12.30
2018-04-20T01:26:34.105Z,13.80
2018-04-20T01:29:02.569Z,10.30
2018-04-20T01:31:31.001Z,11.87
2018-04-20T01:33:59.447Z,12.30
2018-04-20T01:36:27.790Z,24.67
2018-04-20T01:38:56.163Z,16.00
2018-04-20T01:41:24.617Z,11.90
2018-04-20T01:43:53.000Z,9.37
2018-04-20T01:46:21.398Z,9.57
2018-04-20T01:48:49.720Z,18.90
2018-04-20T01:51:18.118Z,7.43
2018-04-20T01:53:46.533Z,8.10
2018-04-20T01:56:14.927Z,17.63
2018-04-20T01:58:43.373Z,10.20
2018-04-20T02:01:11.774Z,7.60
2018-04-20T02:03:40.129Z,7.37
2018-04-20T02:06:08.513Z,8.23
2018-04-20T02:08:36.877Z,12.87
2018-04-20T02:11:05.287Z,11.73
2018-04-20T02:13:33.651Z,9.80
2018-04-20T02:16:02.100Z,9.10
2018-04-20T02:18:30.481Z,16.30
2018-04-20T02:20:58.886Z,8.50
2018-04-20T02:23:27.301Z,12.50
2018-04-20T02:25:55.689Z,9.80
2018-04-20T02:28:24.092Z,10.73
2018-04-20T02:30:52.508Z,8.17
2018-04-20T02:33:20.882Z,12.10
2018-04-20T02:35:49.281Z,14.90
2018-04-20T02:38:17.734Z,11.03
2018-04-20T02:40:46.139Z,12.30
2018-04-20T02:43:14.572Z,13.03
2018-04-20T02:45:42.983Z,14.80
2018-04-20T02:48:11.470Z,8.20
2018-04-20T02:50:39.878Z,9.57
2018-04-20T02:53:08.340Z,12.03
2018-04-20T02:55:36.801Z,10.57
2018-04-20T02:58:05.150Z,16.50
2018-04-20T03:00:33.609Z,10.70
2018-04-20T03:03:02.006Z,10.60
2018-04-20T03:05:30.468Z,12.70
2018-04-20T03:07:58.862Z,11.50
2018-04-20T03:10:27.368Z,13.90
2018-04-20T03:12:55.770Z,18.13
2018-04-20T03:15:24.168Z,12.07
2018-04-20T03:17:52.590Z,19.33
2018-04-20T03:20:20.997Z,12.80
2018-04-20T03:22:49.404Z,21.40
2018-04-20T03:25:17.774Z,10.40
2018-04-20T03:27:46.202Z,13.50
2018-04-20T03:30:14.674Z,15.50
2018-04-20T03:32:43.042Z,9.00
2018-04-20T03:35:11.427Z,12.20
2018-04-20T03:37:39.790Z,14.23
2018-04-20T03:40:08.205Z,9.20
2018-04-20T03:42:36.574Z,11.17
2018-04-20T03:45:04.971Z,8.53
2018-04-20T03:47:33.345Z,12.83
2018-04-20T03:50:01.787Z,15.07
2018-04-20T03:52:30.133Z,9.33
2018-04-20T03:54:58.501Z,12.17
2018-04-20T03:57:26.945Z,15.57
2018-04-20T03:59:55.345Z,9.73
2018-04-20T04:02:23.707Z,11.00
2018-04-20T04:04:52.120Z,11.30
2018-04-20T04:07:20.494Z,19.40
2018-04-20T04:09:48.890Z,17.13
2018-04-20T04:12:17.356Z,16.27
2018-04-20T04:14:45.741Z,17.77
2018-04-20T04:17:25.799Z,16.17
2018-04-20T04:23:07.972Z,14.43
2018-04-20T04:25:47.969Z,10.60
2018-04-20T04:28:26.348Z,14.17
2018-04-20T04:30:54.741Z,13.87
2018-04-20T04:33:23.175Z,10.60
2018-04-20T04:35:51.572Z,13.40
2018-04-20T04:38:19.949Z,13.40
2018-04-20T04:40:48.315Z,8.80
2018-04-20T04:43:16.670Z,9.20
2018-04-20T04:45:45.060Z,13.57
2018-04-20T04:48:13.421Z,12.00
2018-04-20T04:50:41.838Z,14.73
2018-04-20T04:53:10.219Z,12.70
2018-04-20T04:55:38.641Z,12.10
2018-04-20T04:58:07.014Z,9.50
2018-04-20T05:00:35.398Z,28.27
2018-04-20T05:03:03.784Z,14.93
2018-04-20T05:05:32.195Z,17.53
2018-04-20T05:08:00.554Z,12.83
2018-04-20T05:10:28.926Z,9.87
2018-04-20T05:12:57.345Z,12.80
2018-04-20T05:15:25.704Z,21.63
2018-04-20T05:17:54.060Z,18.90
2018-04-20T05:20:22.538Z,17.50
2018-04-20T05:22:50.943Z,24.70
2018-04-20T05:25:19.320Z,19.63
2018-04-20T05:27:47.735Z,28.97
2018-04-20T05:30:16.236Z,23.63
2018-04-20T05:32:44.715Z,22.07
2018-04-20T05:35:13.090Z,21.43
2018-04-20T05:37:41.569Z,13.53
2018-04-20T05:40:09.984Z,15.47
2018-04-20T05:42:38.446Z,19.23
2018-04-20T05:45:11.201Z,21.13
2018-04-20T05:47:40.577Z,38.37
2018-04-20T05:50:09.033Z,25.57
2018-04-20T05:52:37.539Z,48.73
2018-04-20T05:55:05.941Z,30.40
2018-04-20T05:57:34.402Z,23.30
2018-04-20T06:00:03.729Z,12.93
2018-04-20T06:02:32.163Z,20.87
2018-04-20T06:05:00.646Z,19.67
2018-04-20T06:07:29.046Z,11.63
2018-04-20T06:09:57.500Z,15.93
2018-04-20T06:12:25.914Z,34.37
2018-04-20T06:15:03.409Z,10.30
2018-04-20T06:17:31.861Z,10.90
2018-04-20T06:20:00.306Z,17.10
2018-04-20T06:22:28.759Z,14.67
2018-04-20T06:24:57.164Z,18.80
2018-04-20T06:27:25.754Z,13.80
2018-04-20T06:29:54.192Z,19.43
2018-04-20T06:32:22.666Z,15.83
2018-04-20T06:34:54.129Z,13.97
2018-04-20T06:37:22.522Z,14.63
2018-04-20T06:39:50.984Z,12.70
2018-04-20T06:42:19.387Z,7.13
2018-04-20T06:44:47.751Z,19.30
2018-04-20T06:47:16.123Z,17.23
2018-04-20T06:49:44.531Z,8.60
2018-04-20T06:52:12.965Z,6.03
2018-04-20T06:54:41.331Z,11.47
2018-04-20T06:57:10.260Z,12.27
2018-04-20T06:59:38.615Z,8.80
2018-04-20T07:02:06.976Z,8.33
2018-04-20T07:04:35.409Z,6.97
2018-04-20T07:07:03.771Z,15.13
2018-04-20T07:09:32.135Z,12.27
2018-04-20T07:12:00.529Z,11.23
2018-04-20T07:14:28.884Z,5.27
2018-04-20T07:16:57.336Z,7.93
2018-04-20T07:19:25.686Z,5.57
2018-04-20T07:21:54.041Z,9.93
2018-04-20T07:24:22.401Z,14.73
2018-04-20T07:26:50.783Z,11.70
2018-04-20T07:29:19.187Z,6.33
2018-04-20T07:31:47.598Z,10.27
2018-04-20T07:34:16.096Z,8.97
2018-04-20T07:36:44.487Z,8.30
2018-04-20T07:39:12.878Z,8.20
2018-04-20T07:41:41.280Z,13.03
2018-04-20T07:44:09.765Z,20.77
2018-04-20T07:46:38.194Z,8.80
2018-04-20T07:49:06.573Z,5.97
2018-04-20T07:51:34.961Z,5.70
2018-04-20T07:54:03.339Z,6.30
2018-04-20T07:56:31.805Z,11.93
2018-04-20T07:59:00.388Z,11.93
2018-04-20T08:01:28.835Z,12.37
2018-04-20T08:03:57.612Z,10.63
2018-04-20T08:06:26.632Z,7.10
2018-04-20T08:08:55.027Z,9.23
2018-04-20T08:11:23.493Z,22.00
2018-04-20T08:13:51.924Z,7.50
2018-04-20T08:16:20.366Z,6.00
2018-04-20T08:18:48.773Z,6.30
2018-04-20T08:21:17.147Z,12.13
2018-04-20T08:23:45.590Z,4.17
2018-04-20T08:26:13.972Z,10.53
2018-04-20T08:28:42.678Z,5.40
2018-04-20T08:31:11.129Z,5.00
2018-04-20T08:33:39.787Z,4.10
2018-04-20T08:36:08.737Z,8.70
2018-04-20T08:38:39.249Z,4.23
2018-04-20T08:41:08.154Z,6.53
2018-04-20T08:43:40.617Z,5.60
2018-04-20T08:46:11.605Z,16.40
2018-04-20T08:48:41.473Z,5.70
2018-04-20T08:51:11.436Z,9.13
2018-04-20T08:53:42.938Z,28.23
2018-04-20T08:56:22.751Z,4.57
2018-04-20T08:58:54.827Z,5.43
2018-04-20T09:01:29.445Z,3.30
2018-04-20T09:04:08.033Z,4.00
2018-04-20T09:06:42.915Z,5.37
2018-04-20T09:09:17.650Z,16.63
2018-04-20T09:11:48.530Z,8.73
2018-04-20T09:14:16.963Z,5.80
2018-04-20T09:19:19.910Z,4.93
2018-04-20T09:21:48.449Z,5.13
2018-04-20T09:24:16.793Z,4.60
2018-04-20T09:26:45.154Z,5.33
2018-04-20T09:29:13.734Z,8.13
2018-04-20T09:31:42.112Z,6.03
2018-04-20T09:34:10.469Z,7.13
2018-04-20T09:36:38.915Z,8.40
2018-04-20T09:39:07.298Z,4.30
2018-04-20T09:41:35.720Z,6.10
2018-04-20T09:44:04.113Z,6.50
2018-04-20T09:46:32.587Z,3.70
2018-04-20T09:49:00.981Z,4.90
2018-04-20T09:51:29.410Z,6.80
2018-04-20T09:53:57.782Z,6.33
2018-04-20T09:56:26.165Z,7.60
2018-04-20T09:58:54.553Z,3.87
2018-04-20T10:01:24.907Z,10.33
2018-04-20T10:03:57.121Z,8.63
2018-04-20T10:06:25.514Z,6.23
2018-04-20T10:11:37.230Z,4.63
2018-04-20T10:14:05.683Z,7.60
2018-04-20T10:16:34.096Z,3.07
2018-04-20T10:19:02.485Z,7.17
2018-04-20T10:21:30.889Z,12.37
2018-04-20T10:23:59.274Z,4.37
2018-04-20T10:26:27.793Z,8.27
2018-04-20T10:28:56.178Z,6.77
2018-04-20T10:31:24.566Z,3.37
2018-04-20T10:33:53.038Z,5.20
2018-04-20T10:36:21.409Z,5.30
2018-04-20T10:38:49.899Z,5.23
2018-04-20T10:41:18.292Z,3.63
2018-04-20T10:43:46.687Z,11.30
2018-04-20T10:46:15.076Z,4.07
2018-04-20T10:48:43.551Z,3.30
2018-04-20T10:51:11.999Z,3.90
2018-04-20T10:53:40.451Z,5.43
2018-04-20T10:56:08.853Z,3.90
2018-04-20T10:58:37.363Z,5.70
2018-04-20T11:01:05.748Z,7.90
2018-04-20T11:03:34.143Z,5.70
2018-04-20T11:06:02.599Z,4.33
2018-04-20T11:08:31.164Z,2.90
2018-04-20T11:10:59.585Z,5.47
2018-04-20T11:13:28.011Z,8.90
2018-04-20T11:15:56.429Z,6.30
2018-04-20T11:18:24.893Z,9.43
2018-04-20T11:20:53.313Z,6.10
2018-04-20T11:23:21.796Z,8.57
2018-04-20T11:25:50.202Z,5.50
2018-04-20T11:28:18.583Z,3.93
2018-04-20T11:30:46.990Z,5.70
2018-04-20T11:33:15.411Z,5.20
2018-04-20T11:35:43.824Z,3.17
2018-04-20T11:38:12.278Z,4.43
2018-04-20T11:40:40.777Z,5.13
2018-04-20T11:43:09.260Z,4.13
2018-04-20T11:45:37.646Z,5.17
2018-04-20T11:48:06.032Z,3.33
2018-04-20T11:50:34.446Z,3.90
2018-04-20T11:53:03.215Z,4.00
2018-04-20T11:55:31.895Z,4.07
2018-04-20T11:58:00.250Z,4.03
2018-04-20T12:00:28.622Z,4.30
2018-04-20T12:02:56.976Z,3.60
2018-04-20T12:05:25.348Z,6.57
2018-04-20T12:07:53.722Z,7.40
2018-04-20T12:10:22.095Z,3.63
2018-04-20T12:12:50.490Z,3.60
2018-04-20T12:15:18.875Z,8.73
2018-04-20T12:17:47.280Z,3.93
2018-04-20T12:20:15.744Z,4.27
2018-04-20T12:22:44.251Z,3.10
2018-04-20T12:25:12.660Z,4.07
2018-04-20T12:27:41.049Z,5.03
2018-04-20T12:30:09.502Z,8.83
2018-04-20T12:32:38.033Z,9.50
2018-04-20T12:35:06.434Z,4.43
2018-04-20T12:37:34.847Z,12.00
2018-04-20T12:40:03.248Z,3.73
2018-04-20T12:42:31.668Z,17.20
2018-04-20T12:45:00.100Z,4.07
2018-04-20T12:47:28.530Z,7.20
2018-04-20T12:49:56.978Z,4.10
2018-04-20T12:52:25.421Z,5.13
2018-04-20T12:54:53.803Z,4.47
2018-04-20T12:57:22.207Z,5.80
2018-04-20T12:59:50.571Z,4.67
2018-04-20T13:02:18.961Z,12.57
2018-04-20T13:04:47.345Z,5.93
2018-04-20T13:07:15.768Z,14.50
2018-04-20T13:09:44.159Z,4.47
2018-04-20T13:12:12.509Z,5.77
2018-04-20T13:14:40.864Z,5.23
2018-04-20T13:17:09.221Z,6.87
2018-04-20T13:19:37.594Z,4.43
2018-04-20T13:22:05.963Z,6.20
2018-04-20T13:24:34.355Z,9.20
2018-04-20T13:27:02.697Z,6.00
2018-04-20T13:29:31.061Z,6.57
2018-04-20T13:31:59.417Z,3.43
2018-04-20T13:34:27.781Z,6.73
2018-04-20T13:36:56.121Z,3.13
2018-04-20T13:39:24.539Z,10.23
2018-04-20T13:41:52.901Z,6.10
2018-04-20T13:44:21.258Z,9.53
2018-04-20T13:46:49.623Z,6.57
2018-04-20T13:49:18.014Z,4.53
2018-04-20T13:51:46.390Z,3.73
2018-04-20T13:54:14.751Z,7.03
2018-04-20T13:56:43.162Z,3.87
2018-04-20T13:59:11.686Z,9.37
2018-04-20T14:01:40.106Z,5.50
2018-04-20T14:04:08.500Z,6.70
2018-04-20T14:06:36.887Z,9.43
2018-04-20T14:09:06.098Z,6.23
2018-04-20T14:11:34.520Z,6.20
2018-04-20T14:14:02.902Z,5.47
2018-04-20T14:16:31.424Z,6.40
2018-04-20T14:18:59.902Z,8.13
2018-04-20T14:21:28.297Z,8.20
2018-04-20T14:23:56.686Z,5.33
2018-04-20T14:26:25.142Z,7.07
2018-04-20T14:28:53.487Z,7.53
2018-04-20T14:31:21.845Z,6.10
2018-04-20T14:33:50.215Z,5.07
2018-04-20T14:36:18.591Z,10.10
2018-04-20T14:38:46.956Z,5.43
2018-04-20T14:41:15.413Z,5.20
2018-04-20T14:43:43.876Z,4.40
2018-04-20T14:46:12.161Z,6.07
2018-04-20T14:48:40.640Z,5.17
2018-04-20T14:51:09.001Z,3.97
2018-04-20T14:53:37.370Z,5.43
2018-04-20T14:56:05.827Z,5.27
2018-04-20T14:58:34.199Z,9.33
2018-04-20T15:01:02.581Z,6.73
2018-04-20T15:03:30.933Z,4.27
2018-04-20T15:05:59.304Z,4.40
2018-04-20T15:08:27.681Z,10.47
2018-04-20T15:10:56.029Z,4.23
2018-04-20T15:13:24.523Z,6.83
2018-04-20T15:15:52.899Z,7.63
2018-04-20T15:18:21.316Z,4.03
2018-04-20T15:20:49.763Z,8.23
2018-04-20T15:23:18.107Z,10.30
2018-04-20T15:25:46.601Z,9.90
2018-04-20T15:28:14.991Z,6.10
2018-04-20T15:30:43.356Z,5.60
2018-04-20T15:33:11.769Z,4.50
2018-04-20T15:35:40.176Z,6.10
2018-04-20T15:38:08.626Z,6.63
2018-04-20T15:40:37.034Z,9.43
2018-04-20T15:43:05.539Z,7.50
2018-04-20T15:45:33.951Z,4.50
2018-04-20T15:48:02.349Z,7.10
2018-04-20T15:50:30.753Z,18.40
2018-04-20T15:52:59.136Z,23.27
2018-04-20T15:55:27.594Z,19.70
2018-04-20T15:57:56.002Z,20.20
2018-04-20T16:00:24.425Z,27.70
2018-04-20T16:02:52.831Z,26.80
2018-04-20T16:05:21.266Z,27.10
2018-04-20T16:07:49.650Z,27.57
2018-04-20T16:10:18.072Z,27.20
2018-04-20T16:12:46.503Z,27.80
2018-04-20T16:15:14.920Z,25.33
2018-04-20T16:17:43.358Z,25.63
2018-04-20T16:20:11.804Z,24.43
2018-04-20T16:22:40.203Z,31.80
2018-04-20T16:25:08.620Z,21.83
2018-04-20T16:27:37.021Z,25.90
2018-04-20T16:30:05.445Z,24.30
2018-04-20T16:32:33.924Z,27.50
2018-04-20T16:35:02.369Z,28.50
2018-04-20T16:37:30.873Z,22.00
2018-04-20T16:39:59.298Z,21.50
2018-04-20T16:42:27.729Z,27.70
2018-04-20T16:44:56.122Z,22.97
2018-04-20T16:47:24.794Z,77.83
2018-04-20T16:49:53.693Z,23.40
2018-04-20T16:52:22.096Z,30.77
2018-04-20T16:54:50.566Z,28.83
2018-04-20T16:57:18.962Z,29.43
2018-04-20T16:59:47.376Z,27.90
2018-04-20T17:02:15.770Z,20.70
2018-04-20T17:04:44.257Z,21.03
2018-04-20T17:07:12.749Z,26.70
2018-04-20T17:09:41.120Z,23.87
2018-04-20T17:12:09.521Z,24.43
2018-04-20T17:14:37.907Z,19.70
2018-04-20T17:17:06.303Z,22.17
2018-04-20T17:19:34.707Z,18.67
2018-04-20T17:22:03.078Z,21.70
2018-04-20T17:24:31.484Z,18.23
2018-04-20T17:26:59.861Z,17.17
2018-04-20T17:29:28.252Z,26.93
2018-04-20T17:31:56.626Z,22.83
2018-04-20T17:34:25.004Z,17.17
2018-04-20T17:36:53.451Z,16.80
2018-04-20T17:39:21.841Z,21.00
2018-04-20T17:41:50.331Z,22.30
2018-04-20T17:44:18.698Z,15.80
2018-04-20T17:46:47.116Z,24.77
2018-04-20T17:49:15.601Z,17.97
2018-04-20T17:51:44.059Z,21.93
2018-04-20T17:54:12.460Z,30.33
2018-04-20T17:56:40.858Z,25.23
2018-04-20T17:59:09.244Z,25.00
2018-04-20T18:01:37.678Z,16.70
2018-04-20T18:04:06.123Z,14.50
2018-04-20T18:06:34.505Z,21.10
2018-04-20T18:09:02.893Z,16.47
2018-04-20T18:11:31.369Z,16.40
2018-04-20T18:13:59.739Z,18.97
2018-04-20T18:16:28.218Z,20.73
2018-04-20T18:18:56.578Z,14.87
2018-04-20T18:21:24.969Z,16.23
2018-04-20T18:23:53.405Z,21.10
2018-04-20T18:26:21.767Z,15.47
2018-04-20T18:28:50.154Z,23.47
2018-04-20T18:31:18.513Z,14.87
2018-04-20T18:33:46.904Z,28.87
2018-04-20T18:36:15.354Z,19.17
2018-04-20T18:38:43.733Z,13.43
2018-04-20T18:41:12.133Z,17.97
2018-04-20T18:43:40.494Z,12.77
2018-04-20T18:46:08.878Z,18.30
2018-04-20T18:48:37.333Z,14.60
2018-04-20T18:51:05.738Z,20.40
2018-04-20T18:53:34.117Z,13.00
2018-04-20T18:56:02.529Z,19.83
2018-04-20T18:58:30.951Z,22.10
2018-04-20T19:00:59.352Z,21.07
2018-04-20T19:03:27.785Z,16.63
2018-04-20T19:05:56.277Z,18.70
2018-04-20T19:08:24.750Z,16.97
2018-04-20T19:10:53.182Z,33.87
2018-04-20T19:13:21.617Z,20.70
2018-04-20T19:15:50.026Z,23.60
2018-04-20T19:18:18.538Z,17.00
2018-04-20T19:20:46.997Z,21.30
2018-04-20T19:23:15.384Z,19.27
2018-04-20T19:25:43.793Z,23.83
2018-04-20T19:28:12.205Z,23.93
2018-04-20T19:30:40.691Z,18.50
2018-04-20T19:33:09.081Z,23.50
2018-04-20T19:35:37.482Z,39.23
2018-04-20T19:38:05.882Z,23.70
2018-04-20T19:40:34.289Z,23.50
2018-04-20T19:43:02.766Z,19.73
2018-04-20T19:45:31.261Z,21.30
2018-04-20T19:47:59.678Z,26.23
2018-04-20T19:50:28.091Z,32.63
2018-04-20T19:52:56.563Z,31.67
2018-04-20T19:55:24.955Z,21.03
2018-04-20T19:57:53.348Z,20.10
2018-04-20T20:00:21.826Z,26.10
2018-04-20T20:02:50.327Z,16.03
2018-04-20T20:05:18.729Z,23.40
2018-04-20T20:07:47.125Z,15.97
2018-04-20T20:10:15.550Z,21.23
2018-04-20T20:12:44.017Z,19.33
2018-04-20T20:15:12.419Z,18.23
2018-04-20T20:17:40.823Z,27.20
2018-04-20T20:20:09.241Z,18.00
2018-04-20T20:22:37.656Z,27.90
2018-04-20T20:25:06.150Z,24.33
2018-04-20T20:27:34.560Z,32.67
2018-04-20T20:30:02.976Z,23.27
2018-04-20T20:32:31.388Z,23.80
2018-04-20T20:34:59.871Z,32.33
2018-04-20T20:37:28.344Z,22.40
2018-04-20T20:39:56.755Z,31.23
2018-04-20T20:42:25.173Z,23.27
2018-04-20T20:44:53.663Z,26.10
2018-04-20T20:47:22.106Z,22.73
2018-04-20T20:49:50.555Z,22.47
2018-04-20T20:52:18.948Z,31.03
2018-04-20T20:54:47.357Z,32.40
2018-04-20T20:57:15.761Z,20.83
2018-04-20T20:59:44.268Z,16.37
2018-04-20T21:02:12.706Z,18.60
2018-04-20T21:04:41.096Z,14.70
2018-04-20T21:07:09.624Z,18.00
2018-04-20T21:09:38.173Z,11.13
2018-04-20T21:12:06.532Z,14.50
2018-04-20T21:14:34.919Z,18.53
2018-04-20T21:17:03.387Z,19.40
2018-04-20T21:19:31.775Z,15.80
2018-04-20T21:22:00.169Z,24.10
2018-04-20T21:24:28.537Z,13.87
2018-04-20T21:26:56.940Z,21.73
2018-04-20T21:29:25.316Z,17.53
2018-04-20T21:31:53.707Z,25.93
2018-04-20T21:34:22.078Z,17.40
2018-04-20T21:36:50.468Z,19.83
2018-04-20T21:39:18.884Z,25.17
2018-04-20T21:41:47.283Z,18.40
2018-04-20T21:44:15.658Z,26.17
2018-04-20T21:46:44.020Z,29.77
2018-04-20T21:49:12.391Z,21.37
2018-04-20T21:51:40.745Z,18.17
2018-04-20T21:54:09.135Z,15.77
2018-04-20T21:56:37.575Z,13.87
2018-04-20T21:59:05.954Z,13.60
2018-04-20T22:01:34.331Z,15.07
2018-04-20T22:04:02.759Z,21.97
2018-04-20T22:06:31.155Z,12.40
2018-04-20T22:08:59.518Z,16.50
2018-04-20T22:11:27.922Z,18.93
2018-04-20T22:13:56.338Z,23.70
2018-04-20T22:16:24.697Z,10.87
2018-04-20T22:18:53.096Z,24.00
2018-04-20T22:21:21.520Z,13.03
2018-04-20T22:23:50.044Z,20.47
2018-04-20T22:26:18.457Z,23.50
2018-04-20T22:28:46.898Z,20.90
2018-04-20T22:31:15.574Z,26.27
2018-04-20T22:33:44.170Z,25.53
2018-04-20T22:36:12.583Z,23.97
2018-04-20T22:38:40.970Z,18.20
2018-04-20T22:41:09.356Z,28.67
2018-04-20T22:43:37.810Z,23.30
2018-04-20T22:46:06.317Z,21.93
2018-04-20T22:48:34.941Z,18.67
2018-04-20T22:51:03.374Z,21.60
2018-04-20T22:53:31.760Z,16.47
2018-04-20T22:56:00.204Z,14.27
2018-04-20T22:58:28.650Z,16.93
2018-04-20T23:00:57.061Z,15.43
2018-04-20T23:03:25.500Z,21.83
2018-04-20T23:05:53.934Z,13.10
2018-04-20T23:08:22.336Z,15.67
2018-04-20T23:10:50.743Z,24.60
2018-04-20T23:13:19.146Z,22.67
2018-04-20T23:15:47.528Z,21.70
2018-04-20T23:18:15.984Z,20.93
2018-04-20T23:20:44.496Z,23.40
2018-04-20T23:23:12.900Z,24.13
2018-04-20T23:25:41.338Z,30.47
2018-04-20T23:28:09.739Z,27.10
2018-04-20T23:30:38.203Z,21.07
2018-04-20T23:33:06.606Z,26.27
2018-04-20T23:35:34.995Z,20.30
2018-04-20T23:38:03.398Z,22.13
2018-04-20T23:40:31.807Z,19.27
2018-04-20T23:43:00.256Z,23.73
2018-04-20T23:45:28.663Z,25.43
2018-04-20T23:47:57.026Z,34.87
2018-04-20T23:50:25.503Z,25.60
2018-04-20T23:52:53.860Z,32.40
2018-04-20T23:55:22.226Z,19.93
2018-04-20T23:57:50.589Z,27.60
